Aérodrome :







RETROUVEZ-NOUS SUR...

 
LOGIN :

S'inscrire | Disclaimer

   EN    FR    IT 

 









Légende :    VFR   VFR Marginal   IFR   IFR Intensif   IFR Très Intensif
Visi : 
Plafond : 
>= 8 km
>= 3000ft
5 à 8 km
1000 à 3000 ft
1500m à 5 km
500 à 1000 ft
800 à 1500m
200 à 500 ft
< 800m
< 200 ft
Symboles :   Orages  Brouillard  Fortes neiges  Fortes précipitations  Vent > 20 kt






- Altitude de l'aérodrome : 266 ft
- Code IATA : MHT


KMHT - Manchester

DERNIER METAR :
  • 262253Z 25008KT 10SM BKN049 05/M04 A2964 RMK AO2 SLP055 T00501039

METARs EXPIRÉS :
  • 262153Z 25007KT 10SM BKN050 06/M04 A2964 RMK AO2 SLP052 T00561039
  • 262053Z 25007KT 10SM SCT040 07/M03 A2962 RMK AO2 SLP046 T00671028 53003

TAF KMHT
Valide du 27 à 00h jusqu'au 28 à 00h UTC


262328Z 2700/2724 22005KT P6SM SCT050
FM271500 28008KT P6SM BKN080



MET'MAP, la Météo Aéronautique d'un coup d'oeil ! - Copyright ORBIFLY Décembre 2007 - Disclaimer

ORBIFLY MET'MAP TEAM :

Programmation & Développement : Alexandra Zaïnal
Sur une idée originale de : Baudouin d'Aumeries
Assistance à la programmation : Marc-Olivier Méhu
Soutien technique & logistique : Manuel Goepfert

Contact : metmap@orbifly.com




SOURCES & CREDITS :

   NOAA